Hauptseite
METAR-TAF:

METAR-TAF

Flughäfen :

Heeresflugplatz Niederstetten

Niederstetten, Deutschland

Breite: 49-24N, Länge: 009-58E, Höhe: 468 m

Beobachtung

Neuester Wetterbericht von vor 11 Minuten, um 23:20 UTC
Wind 7 kt aus Ost
Temperatur 18°C
Luftfeuchtigkeit 73%
Luftdruck 1020 hPa
Sichtweite 10 km oder mehr
Leicht bewölkt in der Höhe von 5000 ft

METAR: ETHN 212320Z 08007KT 9999 FEW050 18/13 Q1020 BLU+

Zeit: 01:31 (23:31 UTC)

Prognose

Neuester Wetterbericht von vor 1 Stunde und 35 Minuten, um 21:56 UTC
Gültige Prognose vom 21 um 14 UTC bis 21 um 23 UTC
Wind 3 kt aus unterschiedlichen Richtungen
Sichtweite: 2300 m
Aufgelockert bewölkt in der Höhe von 5000 ft

TAF: ETHN 212156Z 2114/2123 VRB03KT 9999 NSW SCT050 CANCEL 2300

Wetterbeobachtungen und Prognosen von mehr als 4000 Flughäfen (METAR und TAF Bericht).

Die verfügbaren Stationen werden durch gelbe und rote Markierungen auf der Karte dargestellt.

Führen Sie die Maus auf sie, um den Namen der Station zu sehen.

Darauf klicken, um die Beobachtung von Wetterbeobachtungen und Prognosen zu sehen.

Um die Karte zu ändern : klicken Sie auf den grünen Tasten mit einem schwarzen Kreuz Zum Vergrößern, auf den grünen Button mit einem Gedankenstrich zu verkleinern, oder auf die grünen Pfeile für benachbarte Karten.


METAR-TAF: